createdAt,value
2017-09-05T00:00:20.514Z,21.86
2017-09-05T00:01:29.466Z,21.79
2017-09-05T00:02:39.376Z,21.75
2017-09-05T00:03:48.350Z,21.79
2017-09-05T00:04:57.314Z,21.74
2017-09-05T00:06:05.960Z,21.69
2017-09-05T00:07:15.544Z,21.62
2017-09-05T00:08:24.508Z,21.58
2017-09-05T00:09:33.787Z,21.54
2017-09-05T00:10:42.443Z,21.61
2017-09-05T00:11:51.132Z,21.61
2017-09-05T00:12:59.946Z,21.61
2017-09-05T00:14:08.910Z,21.58
2017-09-05T00:15:18.500Z,21.62
2017-09-05T00:16:27.462Z,21.61
2017-09-05T00:17:36.118Z,21.56
2017-09-05T00:18:45.547Z,21.56
2017-09-05T00:19:54.560Z,21.54
2017-09-05T00:21:03.840Z,21.58
2017-09-05T00:22:12.821Z,21.56
2017-09-05T00:23:21.772Z,21.46
2017-09-05T00:24:30.894Z,21.43
2017-09-05T00:25:39.856Z,21.5
2017-09-05T00:26:48.832Z,21.4
2017-09-05T00:27:57.789Z,21.43
2017-09-05T00:29:06.430Z,21.4
2017-09-05T00:30:15.083Z,21.47
2017-09-05T00:31:23.735Z,21.47
2017-09-05T00:32:32.386Z,21.46
2017-09-05T00:33:41.981Z,21.43
2017-09-05T00:34:50.953Z,21.4
2017-09-05T00:35:59.594Z,21.35
2017-09-05T00:37:08.254Z,21.34
2017-09-05T00:38:17.548Z,21.32
2017-09-05T00:39:26.505Z,21.35
2017-09-05T00:40:35.785Z,21.35
2017-09-05T00:41:44.480Z,21.38
2017-09-05T00:42:53.464Z,21.28
2017-09-05T00:44:02.106Z,21.31
2017-09-05T00:45:11.379Z,21.24
2017-09-05T00:46:20.014Z,21.17
2017-09-05T00:47:29.336Z,21.16
2017-09-05T00:48:38.307Z,21.14
2017-09-05T00:49:47.267Z,21.13
2017-09-05T00:50:56.552Z,21.06
2017-09-05T00:52:05.204Z,21.06
2017-09-05T00:53:14.223Z,21.06
2017-09-05T00:54:23.214Z,21.01
2017-09-05T00:55:32.492Z,21.06
2017-09-05T00:56:41.459Z,20.97
2017-09-05T00:57:50.738Z,20.95
2017-09-05T00:59:00.473Z,20.94
2017-09-05T01:00:09.441Z,20.91
2017-09-05T01:01:18.414Z,20.97
2017-09-05T01:02:27.678Z,20.91
2017-09-05T01:03:36.329Z,20.95
2017-09-05T01:04:45.718Z,20.91
2017-09-05T01:05:54.384Z,20.94
2017-09-05T01:07:03.345Z,20.87
2017-09-05T01:08:12.954Z,20.82
2017-09-05T01:09:22.257Z,20.84
2017-09-05T01:10:32.259Z,20.94
2017-09-05T01:11:41.224Z,20.77
2017-09-05T01:12:50.833Z,20.8
2017-09-05T01:14:00.115Z,20.82
2017-09-05T01:15:09.387Z,20.91
2017-09-05T01:16:18.351Z,20.8
2017-09-05T01:17:27.020Z,20.84
2017-09-05T01:18:36.308Z,20.8
2017-09-05T01:19:45.267Z,20.79
2017-09-05T01:20:54.245Z,20.73
2017-09-05T01:22:03.619Z,20.91
2017-09-05T01:23:12.588Z,20.87
2017-09-05T01:24:21.856Z,20.92
2017-09-05T01:25:30.507Z,20.91
2017-09-05T01:26:39.781Z,20.92
2017-09-05T01:27:49.212Z,20.89
2017-09-05T01:28:57.858Z,20.91
2017-09-05T01:30:06.512Z,20.91
2017-09-05T01:31:15.154Z,20.88
2017-09-05T01:32:24.441Z,20.82
2017-09-05T01:33:33.407Z,20.82
2017-09-05T01:34:42.049Z,20.85
2017-09-05T01:35:50.704Z,20.87
2017-09-05T01:36:59.676Z,20.94
2017-09-05T01:38:08.640Z,20.95
2017-09-05T01:39:17.966Z,20.95
2017-09-05T01:40:27.252Z,20.82
2017-09-05T01:41:36.207Z,20.89
2017-09-05T01:42:45.513Z,20.85
2017-09-05T01:43:54.463Z,20.8
2017-09-05T01:45:03.213Z,20.82
2017-09-05T01:46:12.491Z,20.79
2017-09-05T01:47:21.470Z,20.85
2017-09-05T01:48:30.441Z,20.88
2017-09-05T01:49:39.757Z,20.88
2017-09-05T01:50:49.501Z,20.84
2017-09-05T01:51:58.467Z,20.85
2017-09-05T01:53:07.429Z,20.82
2017-09-05T01:54:16.722Z,20.77
2017-09-05T01:55:25.702Z,20.79
2017-09-05T01:56:34.994Z,20.76
2017-09-05T01:57:44.268Z,20.77
2017-09-05T01:58:53.549Z,20.72
2017-09-05T02:00:02.508Z,20.77
2017-09-05T02:01:11.788Z,20.64
2017-09-05T02:02:20.849Z,20.74
2017-09-05T02:03:30.130Z,20.66
2017-09-05T02:04:39.095Z,20.79
2017-09-05T02:05:47.779Z,20.77
2017-09-05T02:06:56.767Z,20.73
2017-09-05T02:08:05.897Z,20.79
2017-09-05T02:09:15.169Z,20.8
2017-09-05T02:10:24.445Z,20.91
2017-09-05T02:11:34.056Z,20.84
2017-09-05T02:12:43.016Z,20.82
2017-09-05T02:13:52.611Z,20.88
2017-09-05T02:15:01.890Z,20.88
2017-09-05T02:16:10.855Z,20.84
2017-09-05T02:17:19.830Z,20.88
2017-09-05T02:18:28.481Z,20.85
2017-09-05T02:19:37.229Z,20.82
2017-09-05T02:20:45.874Z,20.87
2017-09-05T02:21:54.523Z,20.88
2017-09-05T02:23:03.174Z,20.82
2017-09-05T02:24:11.813Z,20.8
2017-09-05T02:25:21.151Z,20.79
2017-09-05T02:26:30.105Z,20.79
2017-09-05T02:27:39.379Z,20.84
2017-09-05T02:28:49.293Z,20.84
2017-09-05T02:29:58.253Z,20.84
2017-09-05T02:31:07.631Z,20.82
2017-09-05T02:32:16.607Z,20.87
2017-09-05T02:33:25.898Z,20.89
2017-09-05T02:34:34.858Z,20.89
2017-09-05T02:35:43.834Z,20.8
2017-09-05T02:36:52.905Z,20.87
2017-09-05T02:38:01.559Z,20.82
2017-09-05T02:39:10.523Z,20.84
2017-09-05T02:40:19.806Z,20.82
2017-09-05T02:41:29.089Z,20.84
2017-09-05T02:42:38.784Z,20.85
2017-09-05T02:43:47.738Z,20.85
2017-09-05T02:44:56.697Z,20.84
2017-09-05T02:46:05.387Z,20.82
2017-09-05T02:47:14.352Z,20.92
2017-09-05T02:48:23.699Z,20.94
2017-09-05T02:49:32.658Z,20.97
2017-09-05T02:50:42.258Z,20.99
2017-09-05T02:51:51.226Z,20.99
2017-09-05T02:52:59.872Z,20.99
2017-09-05T02:54:09.348Z,21.04
2017-09-05T02:55:19.253Z,20.99
2017-09-05T02:56:27.907Z,20.99
2017-09-05T02:57:36.875Z,20.98
2017-09-05T02:58:45.854Z,20.94
2017-09-05T02:59:54.906Z,20.92
2017-09-05T03:01:04.173Z,21.01
2017-09-05T03:02:13.133Z,20.95
2017-09-05T03:03:22.717Z,21.01
2017-09-05T03:04:31.674Z,20.98
2017-09-05T03:05:41.049Z,20.95
2017-09-05T03:06:50.333Z,20.95
2017-09-05T03:07:58.982Z,20.92
2017-09-05T03:09:08.278Z,20.92
2017-09-05T03:10:17.238Z,20.95
2017-09-05T03:11:26.314Z,20.98
2017-09-05T03:12:35.893Z,20.98
2017-09-05T03:13:44.557Z,20.95
2017-09-05T03:14:53.535Z,20.95
2017-09-05T03:16:02.492Z,20.91
2017-09-05T03:17:12.199Z,20.99
2017-09-05T03:18:21.782Z,21.01
2017-09-05T03:19:30.744Z,21.1
2017-09-05T03:20:39.401Z,21.13
2017-09-05T03:21:48.668Z,21.22
2017-09-05T03:22:57.780Z,21.16
2017-09-05T03:24:06.420Z,21.24
2017-09-05T03:25:15.378Z,21.29
2017-09-05T03:26:24.968Z,21.25
2017-09-05T03:27:33.921Z,21.31
2017-09-05T03:28:42.570Z,21.29
2017-09-05T03:29:51.221Z,21.38
2017-09-05T03:31:00.811Z,21.35
2017-09-05T03:32:10.771Z,21.46
2017-09-05T03:33:19.741Z,21.37
2017-09-05T03:34:28.379Z,21.42
2017-09-05T03:35:37.353Z,21.42
2017-09-05T03:36:46.623Z,21.38
2017-09-05T03:37:55.591Z,21.31
2017-09-05T03:39:04.550Z,21.22
2017-09-05T03:40:13.211Z,21.22
2017-09-05T03:41:21.858Z,21.25
2017-09-05T03:42:30.828Z,21.27
2017-09-05T03:43:40.424Z,21.29
2017-09-05T03:44:49.083Z,21.28
2017-09-05T03:45:57.790Z,21.22
2017-09-05T03:47:07.079Z,21.22
2017-09-05T03:48:16.052Z,21.29
2017-09-05T03:49:25.012Z,21.19
2017-09-05T03:50:33.974Z,21.28
2017-09-05T03:51:43.421Z,21.24
2017-09-05T03:52:52.381Z,21.14
2017-09-05T03:54:01.970Z,21.22
2017-09-05T03:55:10.933Z,21.16
2017-09-05T03:56:19.895Z,21.13
2017-09-05T03:57:28.899Z,21.17
2017-09-05T03:58:37.540Z,21.16
2017-09-05T03:59:47.130Z,21.13
2017-09-05T04:00:56.426Z,21.13
2017-09-05T04:02:05.078Z,21.06
2017-09-05T04:03:14.814Z,21.14
2017-09-05T04:04:24.104Z,21.03
2017-09-05T04:05:33.093Z,21.06
2017-09-05T04:06:42.074Z,21.06
2017-09-05T04:07:51.034Z,21.17
2017-09-05T04:09:00.203Z,21.14
2017-09-05T04:10:09.469Z,21.1
2017-09-05T04:11:18.117Z,21.06
2017-09-05T04:12:27.085Z,21.07
2017-09-05T04:13:36.056Z,21.03
2017-09-05T04:14:44.803Z,21.04
2017-09-05T04:15:53.440Z,21.06
2017-09-05T04:17:02.164Z,21.06
2017-09-05T04:18:11.190Z,21.1
2017-09-05T04:19:20.462Z,21.07
2017-09-05T04:20:29.257Z,21.03
2017-09-05T04:21:38.534Z,21.03
2017-09-05T04:22:47.809Z,21.06
2017-09-05T04:23:56.770Z,21.03
2017-09-05T04:25:06.181Z,20.99
2017-09-05T04:26:15.562Z,20.99
2017-09-05T04:27:24.554Z,20.92
2017-09-05T04:28:33.613Z,20.98
2017-09-05T04:29:43.212Z,20.99
2017-09-05T04:30:52.494Z,20.94
2017-09-05T04:32:01.329Z,20.94
2017-09-05T04:33:10.326Z,20.98
2017-09-05T04:34:19.304Z,20.95
2017-09-05T04:35:27.975Z,20.94
2017-09-05T04:36:37.023Z,20.92
2017-09-05T04:37:45.856Z,20.92
2017-09-05T04:38:54.804Z,20.92
2017-09-05T04:40:03.442Z,20.91
2017-09-05T04:41:12.429Z,20.84
2017-09-05T04:42:21.709Z,20.85
2017-09-05T04:43:30.774Z,20.85
2017-09-05T04:44:40.057Z,20.85
2017-09-05T04:45:48.708Z,20.89
2017-09-05T04:46:57.371Z,20.84
2017-09-05T04:48:06.027Z,20.84
2017-09-05T04:49:15.619Z,20.91
2017-09-05T04:50:25.221Z,20.85
2017-09-05T04:51:33.890Z,20.94
2017-09-05T04:52:42.528Z,20.91
2017-09-05T04:53:51.219Z,20.85
2017-09-05T04:55:00.735Z,20.95
2017-09-05T04:56:09.696Z,20.97
2017-09-05T04:57:18.656Z,20.94
2017-09-05T04:58:27.306Z,20.94
2017-09-05T04:59:36.271Z,20.95
2017-09-05T05:00:45.591Z,20.94
2017-09-05T05:01:54.554Z,20.88
2017-09-05T05:03:04.468Z,20.85
2017-09-05T05:04:13.437Z,20.94
2017-09-05T05:05:22.399Z,20.85
2017-09-05T05:06:31.518Z,20.82
2017-09-05T05:07:40.477Z,20.79
2017-09-05T05:08:49.422Z,20.87
2017-09-05T05:09:58.093Z,20.99
2017-09-05T05:11:06.773Z,20.94
2017-09-05T05:12:16.383Z,21.06
2017-09-05T05:13:25.087Z,21.07
2017-09-05T05:14:35.366Z,21.16
2017-09-05T05:15:44.247Z,21.06
2017-09-05T05:16:53.219Z,21.1
2017-09-05T05:18:02.545Z,21.13
2017-09-05T05:19:11.201Z,21.1
2017-09-05T05:20:19.858Z,21.07
2017-09-05T05:21:29.458Z,21.09
2017-09-05T05:22:38.747Z,21.07
2017-09-05T05:23:47.931Z,21.17
2017-09-05T05:24:57.699Z,21.19
2017-09-05T05:26:07.412Z,21.12
2017-09-05T05:27:16.380Z,21.1
2017-09-05T05:28:25.654Z,21.16
2017-09-05T05:29:34.989Z,21.07
2017-09-05T05:30:43.645Z,21.07
2017-09-05T05:31:52.913Z,21.03
2017-09-05T05:33:02.188Z,21.09
2017-09-05T05:34:11.790Z,21.06
2017-09-05T05:35:20.878Z,21.07
2017-09-05T05:36:29.542Z,21.06
2017-09-05T05:37:39.232Z,21.07
2017-09-05T05:38:48.537Z,21.04
2017-09-05T05:39:57.932Z,21.09
2017-09-05T05:41:07.242Z,21.07
2017-09-05T05:42:16.456Z,21.06
2017-09-05T05:43:25.510Z,21.01
2017-09-05T05:44:36.383Z,20.98
2017-09-05T05:45:45.970Z,20.95
2017-09-05T05:46:55.381Z,21.06
2017-09-05T05:48:04.806Z,21.09
2017-09-05T05:49:13.786Z,21.01
2017-09-05T05:50:22.439Z,21.1
2017-09-05T05:51:31.520Z,21.14
2017-09-05T05:52:41.002Z,21.16
2017-09-05T05:53:50.287Z,21.13
2017-09-05T05:54:58.942Z,21.19
2017-09-05T05:56:07.605Z,21.13
2017-09-05T05:57:16.891Z,21.13
2017-09-05T05:58:25.687Z,21.13
2017-09-05T05:59:34.987Z,21.19
2017-09-05T06:00:44.005Z,21.27
2017-09-05T06:01:53.286Z,21.25
2017-09-05T06:03:02.266Z,21.27
2017-09-05T06:04:11.587Z,21.34
2017-09-05T06:05:20.552Z,21.28
2017-09-05T06:06:29.208Z,21.31
2017-09-05T06:07:38.880Z,21.28
2017-09-05T06:08:47.522Z,21.38
2017-09-05T06:09:57.358Z,21.42
2017-09-05T06:11:07.234Z,21.34
2017-09-05T06:12:16.292Z,21.4
2017-09-05T06:13:25.604Z,21.47
2017-09-05T06:14:34.788Z,21.49
2017-09-05T06:15:45.746Z,21.43
2017-09-05T06:16:55.104Z,21.49
2017-09-05T06:18:04.398Z,21.42
2017-09-05T06:19:13.677Z,21.5
2017-09-05T06:20:22.640Z,21.4
2017-09-05T06:21:31.382Z,21.4
2017-09-05T06:22:40.036Z,21.42
2017-09-05T06:23:49.322Z,21.38
2017-09-05T06:24:58.277Z,21.44
2017-09-05T06:26:06.913Z,21.42
2017-09-05T06:27:15.673Z,21.43
2017-09-05T06:28:24.332Z,21.43
2017-09-05T06:29:33.302Z,21.47
2017-09-05T06:30:41.947Z,21.49
2017-09-05T06:31:51.218Z,21.49
2017-09-05T06:33:00.330Z,21.46
2017-09-05T06:34:08.987Z,21.43
2017-09-05T06:35:17.953Z,21.43
2017-09-05T06:36:26.967Z,21.54
2017-09-05T06:37:35.941Z,21.44
2017-09-05T06:38:45.041Z,21.58
2017-09-05T06:39:53.696Z,21.56
2017-09-05T06:41:02.650Z,21.64
2017-09-05T06:42:12.228Z,21.62
2017-09-05T06:43:21.532Z,21.71
2017-09-05T06:44:30.584Z,21.84
2017-09-05T06:45:39.576Z,21.88
2017-09-05T06:46:48.598Z,21.92
2017-09-05T06:47:57.882Z,21.8
2017-09-05T06:49:06.842Z,21.94
2017-09-05T06:50:16.225Z,21.98
2017-09-05T06:51:25.574Z,21.94
2017-09-05T06:52:34.847Z,21.94
2017-09-05T06:53:44.148Z,21.99
2017-09-05T06:54:52.847Z,21.99
2017-09-05T06:56:01.929Z,22.02
2017-09-05T06:57:10.897Z,21.99
2017-09-05T06:58:20.166Z,21.98
2017-09-05T06:59:28.824Z,21.94
2017-09-05T07:00:38.106Z,21.92
2017-09-05T07:01:47.378Z,21.92
2017-09-05T07:02:57.709Z,21.99
2017-09-05T07:04:07.380Z,21.99
2017-09-05T07:05:16.810Z,21.96
2017-09-05T07:06:26.589Z,21.92
2017-09-05T07:07:35.699Z,22
2017-09-05T07:08:45.078Z,22
2017-09-05T07:09:54.031Z,22.02
2017-09-05T07:11:03.028Z,22.02
2017-09-05T07:12:11.680Z,22
2017-09-05T07:13:21.110Z,22.06
2017-09-05T07:14:30.071Z,22.14
2017-09-05T07:15:39.350Z,22.18
2017-09-05T07:16:48.314Z,22.25
2017-09-05T07:17:56.949Z,22.36
2017-09-05T07:19:05.969Z,22.42
2017-09-05T07:20:15.256Z,22.39
2017-09-05T07:21:24.249Z,22.62
2017-09-05T07:22:33.205Z,22.6
2017-09-05T07:23:41.881Z,22.57
2017-09-05T07:24:50.961Z,22.76
2017-09-05T07:25:59.931Z,22.79
2017-09-05T07:27:08.889Z,22.88
2017-09-05T07:28:18.167Z,22.88
2017-09-05T07:29:27.757Z,23.01
2017-09-05T07:30:37.098Z,23.07
2017-09-05T07:31:46.073Z,23.15
2017-09-05T07:32:54.729Z,23.16
2017-09-05T07:34:03.712Z,23.16
2017-09-05T07:35:12.663Z,23.39
2017-09-05T07:36:21.773Z,23.33
2017-09-05T07:37:30.418Z,23.43
2017-09-05T07:38:39.076Z,23.42
2017-09-05T07:39:48.045Z,23.57
2017-09-05T07:40:57.322Z,23.61
2017-09-05T07:42:06.307Z,23.61
2017-09-05T07:43:15.582Z,23.69
2017-09-05T07:44:24.855Z,23.76
2017-09-05T07:45:34.489Z,23.72
2017-09-05T07:46:44.080Z,23.76
2017-09-05T07:47:53.189Z,23.75
2017-09-05T07:49:02.165Z,23.9
2017-09-05T07:50:10.809Z,23.85
2017-09-05T07:51:19.766Z,23.94
2017-09-05T07:52:28.718Z,23.93
2017-09-05T07:53:37.776Z,24.05
2017-09-05T07:54:46.730Z,24.08
2017-09-05T07:55:55.701Z,24.08
2017-09-05T07:57:05.287Z,24.12
2017-09-05T07:58:14.564Z,24.06
2017-09-05T07:59:23.583Z,24.18
2017-09-05T08:00:33.175Z,24.27
2017-09-05T08:01:42.142Z,24.31
2017-09-05T08:02:51.111Z,24.31
2017-09-05T08:04:00.392Z,24.37
2017-09-05T08:05:09.782Z,24.31
2017-09-05T08:06:18.434Z,24.37
2017-09-05T08:07:27.717Z,24.42
2017-09-05T08:08:36.434Z,24.5
2017-09-05T08:09:45.713Z,24.47
2017-09-05T08:10:54.692Z,24.57
2017-09-05T08:12:03.664Z,24.68
2017-09-05T08:13:12.321Z,24.77
2017-09-05T08:14:20.986Z,24.73
2017-09-05T08:15:29.643Z,24.84
2017-09-05T08:16:39.072Z,24.78
2017-09-05T08:17:48.986Z,24.9
2017-09-05T08:18:58.268Z,24.98
2017-09-05T08:20:06.933Z,25.03
2017-09-05T08:21:15.900Z,25.03
2017-09-05T08:22:25.024Z,25.06
2017-09-05T08:23:34.326Z,25.05
2017-09-05T08:24:43.009Z,25.1
2017-09-05T08:25:51.672Z,25.21
2017-09-05T08:27:00.652Z,25.2
2017-09-05T08:28:09.761Z,25.23
2017-09-05T08:29:19.059Z,25.2
2017-09-05T08:30:28.022Z,25.24
2017-09-05T08:31:36.684Z,25.23
2017-09-05T08:32:45.344Z,25.25
2017-09-05T08:33:54.480Z,25.3
2017-09-05T08:35:03.130Z,25.27
2017-09-05T08:36:12.112Z,25.24
2017-09-05T08:37:21.070Z,25.25
2017-09-05T08:38:30.036Z,25.24
2017-09-05T08:39:39.151Z,25.21
2017-09-05T08:40:47.804Z,25.25
2017-09-05T08:41:56.791Z,25.25
2017-09-05T08:43:05.765Z,25.3
2017-09-05T08:44:14.438Z,25.3
2017-09-05T08:45:23.869Z,25.36
2017-09-05T08:46:32.539Z,25.35
2017-09-05T08:47:42.141Z,25.36
2017-09-05T08:48:51.105Z,25.43
2017-09-05T08:49:59.754Z,25.5
2017-09-05T08:51:08.404Z,25.43
2017-09-05T08:52:17.684Z,25.46
2017-09-05T08:53:26.648Z,25.46
2017-09-05T08:54:35.953Z,25.47
2017-09-05T08:55:44.936Z,25.5
2017-09-05T08:56:53.744Z,25.38
2017-09-05T08:58:03.060Z,25.43
2017-09-05T08:59:12.020Z,25.39
2017-09-05T09:00:21.606Z,25.36
2017-09-05T09:01:30.893Z,25.33
2017-09-05T09:02:39.917Z,25.28
2017-09-05T09:03:49.213Z,25.32
2017-09-05T09:04:58.492Z,25.36
2017-09-05T09:06:07.459Z,25.3
2017-09-05T09:07:16.431Z,25.23
2017-09-05T09:08:25.550Z,25.15
2017-09-05T09:09:34.587Z,25.15
2017-09-05T09:10:43.884Z,25.05
2017-09-05T09:11:52.860Z,25.06
2017-09-05T09:13:02.164Z,25.06
2017-09-05T09:14:11.878Z,24.96
2017-09-05T09:15:20.524Z,24.96
2017-09-05T09:16:29.500Z,24.9
2017-09-05T09:17:38.159Z,24.8
2017-09-05T09:18:47.117Z,24.77
2017-09-05T09:20:28.816Z,24.84
2017-09-05T09:21:37.473Z,24.71
2017-09-05T09:22:46.444Z,24.68
2017-09-05T09:23:55.734Z,24.69
2017-09-05T09:25:05.029Z,24.67
2017-09-05T09:26:13.998Z,24.77
2017-09-05T09:27:23.272Z,24.68
2017-09-05T09:28:32.545Z,24.65
2017-09-05T09:29:41.207Z,24.73
2017-09-05T09:30:50.496Z,24.57
2017-09-05T09:31:59.479Z,24.57
2017-09-05T09:33:08.493Z,24.55
2017-09-05T09:34:17.454Z,24.5
2017-09-05T09:35:26.427Z,24.47
2017-09-05T09:36:35.462Z,24.46
2017-09-05T09:37:44.122Z,24.37
2017-09-05T09:38:53.402Z,24.42
2017-09-05T09:40:02.061Z,24.3
2017-09-05T09:41:11.029Z,24.3
2017-09-05T09:42:19.751Z,24.31
2017-09-05T09:43:29.347Z,24.35
2017-09-05T09:44:37.996Z,24.43
2017-09-05T09:45:47.261Z,24.34
2017-09-05T09:46:56.547Z,24.42
2017-09-05T09:48:05.526Z,24.39
2017-09-05T09:49:14.554Z,24.42
2017-09-05T09:50:23.524Z,24.31
2017-09-05T09:51:33.127Z,24.3
2017-09-05T09:52:42.411Z,24.28
2017-09-05T09:53:51.376Z,24.45
2017-09-05T09:55:00.043Z,24.39
2017-09-05T09:56:09.682Z,24.45
2017-09-05T09:57:18.965Z,24.45
2017-09-05T09:58:28.570Z,24.46
2017-09-05T09:59:37.855Z,24.4
2017-09-05T10:00:46.510Z,24.4
2017-09-05T10:01:56.113Z,24.43
2017-09-05T10:03:05.085Z,24.35
2017-09-05T10:04:13.743Z,24.46
2017-09-05T10:05:23.695Z,24.42
2017-09-05T10:06:33.003Z,24.46
2017-09-05T10:07:42.019Z,24.4
2017-09-05T10:08:51.328Z,24.42
2017-09-05T10:10:00.285Z,24.39
2017-09-05T10:11:08.936Z,24.46
2017-09-05T10:12:17.910Z,24.42
2017-09-05T10:13:26.894Z,24.22
2017-09-05T10:14:36.179Z,24.31
2017-09-05T10:15:45.149Z,24.4
2017-09-05T10:16:54.444Z,24.3
2017-09-05T10:18:04.032Z,24.25
2017-09-05T10:19:12.692Z,24.34
2017-09-05T10:20:21.343Z,24.3
2017-09-05T10:21:30.628Z,24.24
2017-09-05T10:22:40.245Z,24.25
2017-09-05T10:23:49.533Z,24.37
2017-09-05T10:24:58.496Z,24.37
2017-09-05T10:26:07.770Z,24.27
2017-09-05T10:27:17.365Z,24.32
2017-09-05T10:28:26.968Z,24.37
2017-09-05T10:29:35.955Z,24.27
2017-09-05T10:30:45.552Z,24.42
2017-09-05T10:31:54.558Z,24.3
2017-09-05T10:33:03.861Z,24.31
2017-09-05T10:34:13.143Z,24.4
2017-09-05T10:35:22.421Z,24.43
2017-09-05T10:36:31.413Z,24.43
2017-09-05T10:37:40.066Z,24.5
2017-09-05T10:38:49.025Z,24.37
2017-09-05T10:39:57.812Z,24.45
2017-09-05T10:41:06.830Z,24.5
2017-09-05T10:42:15.494Z,24.55
2017-09-05T10:43:24.484Z,24.6
2017-09-05T10:44:33.774Z,24.53
2017-09-05T10:45:43.074Z,24.53
2017-09-05T10:46:51.730Z,24.67
2017-09-05T10:48:00.692Z,24.67
2017-09-05T10:49:09.379Z,24.65
2017-09-05T10:50:18.351Z,24.69
2017-09-05T10:51:27.009Z,24.68
2017-09-05T10:52:36.315Z,24.76
2017-09-05T10:53:45.612Z,24.81
2017-09-05T10:54:54.902Z,24.81
2017-09-05T10:56:03.572Z,24.77
2017-09-05T10:57:12.610Z,24.85
2017-09-05T10:58:21.909Z,24.81
2017-09-05T10:59:31.190Z,24.81
2017-09-05T11:00:40.473Z,24.91
2017-09-05T11:01:50.112Z,24.95
2017-09-05T11:02:59.424Z,24.95
2017-09-05T11:04:08.714Z,25
2017-09-05T11:05:17.682Z,24.98
2017-09-05T11:06:26.960Z,24.99
2017-09-05T11:07:35.920Z,25.05
2017-09-05T11:08:45.557Z,25.05
2017-09-05T11:09:55.162Z,25.05
2017-09-05T11:11:04.435Z,25.05
2017-09-05T11:12:13.414Z,25.06
2017-09-05T11:13:23.016Z,25.09
2017-09-05T11:14:32.043Z,25.06
2017-09-05T11:15:41.643Z,24.98
2017-09-05T11:16:50.638Z,25.02
2017-09-05T11:17:59.620Z,24.95
2017-09-05T11:19:08.588Z,25
2017-09-05T11:20:17.561Z,25
2017-09-05T11:21:26.853Z,25.05
2017-09-05T11:22:35.824Z,25.03
2017-09-05T11:23:44.477Z,25
2017-09-05T11:24:53.443Z,24.98
2017-09-05T11:26:02.728Z,24.96
2017-09-05T11:27:11.696Z,24.96
2017-09-05T11:28:20.658Z,25.02
2017-09-05T11:29:29.310Z,25
2017-09-05T11:30:38.599Z,25
2017-09-05T11:31:47.577Z,24.96
2017-09-05T11:32:56.240Z,24.98
2017-09-05T11:34:05.204Z,24.9
2017-09-05T11:35:14.810Z,25.03
2017-09-05T11:36:23.471Z,24.9
2017-09-05T11:37:32.442Z,25
2017-09-05T11:38:41.721Z,24.95
2017-09-05T11:39:50.713Z,24.9
2017-09-05T11:40:59.684Z,24.96
2017-09-05T11:42:08.970Z,25
2017-09-05T11:43:18.264Z,24.98
2017-09-05T11:44:27.239Z,24.99
2017-09-05T11:45:36.519Z,24.96
2017-09-05T11:46:45.479Z,25
2017-09-05T11:47:54.444Z,24.9
2017-09-05T11:49:03.408Z,24.98
2017-09-05T11:50:12.378Z,24.9
2017-09-05T11:51:21.693Z,24.96
2017-09-05T11:52:30.344Z,24.93
2017-09-05T11:53:39.636Z,24.95
2017-09-05T11:54:48.606Z,24.91
2017-09-05T11:55:57.581Z,24.93
2017-09-05T11:57:06.537Z,24.96
2017-09-05T11:58:15.512Z,24.84
2017-09-05T11:59:24.473Z,24.78
2017-09-05T12:00:33.122Z,24.83
2017-09-05T12:01:42.419Z,24.84
2017-09-05T12:02:51.386Z,24.8
2017-09-05T12:04:00.061Z,24.81
2017-09-05T12:05:08.716Z,24.81
2017-09-05T12:06:18.314Z,24.78
2017-09-05T12:07:27.601Z,24.81
2017-09-05T12:08:36.249Z,24.91
2017-09-05T12:09:45.230Z,24.91
2017-09-05T12:10:54.206Z,24.88
2017-09-05T12:12:03.484Z,24.87
2017-09-05T12:13:13.098Z,24.95
2017-09-05T12:14:23.022Z,24.88
2017-09-05T12:15:32.000Z,24.93
2017-09-05T12:16:41.282Z,24.95
2017-09-05T12:17:51.191Z,24.93
2017-09-05T12:19:00.176Z,24.93
2017-09-05T12:20:09.761Z,24.91
2017-09-05T12:21:18.418Z,24.98
2017-09-05T12:22:27.697Z,24.96
2017-09-05T12:23:36.804Z,24.9
2017-09-05T12:24:45.456Z,24.93
2017-09-05T12:25:54.441Z,24.95
2017-09-05T12:27:03.410Z,24.93
2017-09-05T12:28:12.717Z,24.93
2017-09-05T12:29:21.371Z,24.9
2017-09-05T12:30:30.024Z,24.84
2017-09-05T12:31:39.063Z,24.8
2017-09-05T12:32:48.029Z,24.87
2017-09-05T12:33:56.765Z,24.83
2017-09-05T12:35:05.423Z,24.78
2017-09-05T12:36:14.704Z,24.77
2017-09-05T12:37:23.989Z,24.81
2017-09-05T12:38:32.639Z,24.77
2017-09-05T12:39:41.612Z,24.8
2017-09-05T12:40:51.273Z,24.83
2017-09-05T12:42:01.186Z,24.76
2017-09-05T12:43:10.477Z,24.8
2017-09-05T12:44:19.772Z,24.8
2017-09-05T12:45:28.742Z,24.78
2017-09-05T12:46:37.718Z,24.81
2017-09-05T12:47:46.993Z,24.84
2017-09-05T12:48:55.981Z,24.84
2017-09-05T12:50:05.275Z,24.84
2017-09-05T12:51:14.881Z,24.77
2017-09-05T12:52:23.562Z,24.78
2017-09-05T12:53:32.547Z,24.77
2017-09-05T12:54:41.818Z,24.65
2017-09-05T12:55:51.106Z,24.76
2017-09-05T12:57:00.082Z,24.73
2017-09-05T12:58:08.795Z,24.65
2017-09-05T12:59:17.764Z,24.55
2017-09-05T13:00:26.421Z,24.64
2017-09-05T13:01:35.088Z,24.62
2017-09-05T13:02:43.753Z,24.62
2017-09-05T13:03:52.401Z,24.58
2017-09-05T13:05:01.690Z,24.62
2017-09-05T13:06:10.665Z,24.62
2017-09-05T13:07:19.633Z,24.65
2017-09-05T13:08:28.293Z,24.65
2017-09-05T13:09:37.290Z,24.65
2017-09-05T13:10:46.294Z,24.62
2017-09-05T13:11:55.578Z,24.68
2017-09-05T13:13:04.866Z,24.67
2017-09-05T13:14:14.172Z,24.68
2017-09-05T13:15:23.148Z,24.65
2017-09-05T13:16:31.801Z,24.71
2017-09-05T13:17:40.772Z,24.71
2017-09-05T13:18:49.740Z,24.71
2017-09-05T13:19:59.038Z,24.71
2017-09-05T13:21:08.317Z,24.78
2017-09-05T13:22:17.281Z,24.69
2017-09-05T13:23:26.866Z,24.76
2017-09-05T13:24:35.856Z,24.8
2017-09-05T13:25:44.519Z,24.78
2017-09-05T13:26:53.799Z,24.81
2017-09-05T13:28:02.777Z,24.77
2017-09-05T13:29:11.768Z,24.95
2017-09-05T13:30:21.075Z,24.81
2017-09-05T13:31:30.699Z,24.96
2017-09-05T13:32:39.977Z,24.96
2017-09-05T13:33:49.578Z,24.93
2017-09-05T13:34:58.543Z,24.93
2017-09-05T13:36:07.517Z,24.95
2017-09-05T13:37:16.285Z,25.02
2017-09-05T13:38:25.271Z,24.99
2017-09-05T13:39:34.409Z,25.08
2017-09-05T13:40:43.380Z,24.99
2017-09-05T13:41:52.737Z,25.02
2017-09-05T13:43:02.034Z,25.06
2017-09-05T13:44:10.997Z,25.03
2017-09-05T13:45:19.969Z,25.09
2017-09-05T13:46:29.270Z,25.08
2017-09-05T13:47:38.314Z,25.13
2017-09-05T13:48:47.302Z,25.05
2017-09-05T13:49:56.590Z,25.06
2017-09-05T13:51:05.264Z,25.13
2017-09-05T13:52:14.247Z,25.14
2017-09-05T13:53:23.025Z,25.1
2017-09-05T13:54:32.338Z,25.15
2017-09-05T13:55:42.308Z,25.13
2017-09-05T13:56:51.310Z,25.08
2017-09-05T13:57:59.979Z,25.1
2017-09-05T13:59:09.271Z,25.14
2017-09-05T14:00:18.870Z,25.15
2017-09-05T14:01:27.529Z,25.09
2017-09-05T14:02:36.511Z,25.14
2017-09-05T14:03:45.463Z,25.09
2017-09-05T14:04:54.745Z,25.14
2017-09-05T14:06:03.710Z,25.1
2017-09-05T14:07:12.688Z,25.08
2017-09-05T14:08:21.359Z,25.06
2017-09-05T14:09:31.066Z,25.1
2017-09-05T14:10:40.029Z,25.14
2017-09-05T14:11:49.776Z,25.14
2017-09-05T14:12:59.300Z,25.15
2017-09-05T14:14:08.544Z,25.05
2017-09-05T14:15:17.507Z,25.09
2017-09-05T14:16:26.785Z,25.09
2017-09-05T14:17:36.061Z,25.1
2017-09-05T14:18:45.651Z,25.09
2017-09-05T14:19:54.331Z,25.03
2017-09-05T14:21:03.308Z,25.03
2017-09-05T14:22:12.720Z,25.05
2017-09-05T14:23:21.685Z,24.95
2017-09-05T14:24:31.010Z,24.99
2017-09-05T14:25:39.982Z,24.96
2017-09-05T14:26:49.674Z,24.96
2017-09-05T14:27:58.669Z,24.98
2017-09-05T14:29:08.637Z,25.02
2017-09-05T14:30:17.637Z,24.96
2017-09-05T14:31:27.279Z,25.06
2017-09-05T14:32:36.238Z,24.95
2017-09-05T14:33:45.259Z,24.95
2017-09-05T14:34:54.231Z,25.02
2017-09-05T14:36:03.919Z,24.93
2017-09-05T14:37:12.575Z,24.98
2017-09-05T14:38:21.250Z,24.93
2017-09-05T14:39:30.728Z,25.03
2017-09-05T14:40:39.712Z,25.05
2017-09-05T14:41:49.469Z,24.96
2017-09-05T14:42:58.475Z,25.05
2017-09-05T14:44:07.464Z,24.98
2017-09-05T14:45:16.287Z,25.05
2017-09-05T14:46:25.270Z,25.06
2017-09-05T14:47:34.892Z,24.99
2017-09-05T14:48:43.601Z,24.96
2017-09-05T14:49:53.262Z,25.03
2017-09-05T14:51:02.848Z,25.14
2017-09-05T14:52:12.245Z,25.03
2017-09-05T14:53:21.371Z,24.99
2017-09-05T14:54:31.102Z,25.14